Prospect Creek, Prospect Cree, AK

7:23 AM AKDT on July 23, 2016 (GMT -0800)
Bettles | | Change Station

Elev 643 ft 66.91 °N, 151.53 °W | Updated 30 minutes ago

Mostly Cloudy
Mostly Cloudy
53 °F
Feels Like 53 °F
N
0
Wind Variable Wind from North

Today
High -- | Low -- °F
--% Chance of Precip.
Yesterday
High -- | Low -- °F
Precip. -- in
Pressure 29.73 in
Visibility 10.0 miles
Clouds Scattered Clouds 4200 ft
Scattered Clouds 5000 ft
Mostly Cloudy 7000 ft
Dew Point 48 °F
Humidity 83%
Rainfall 0.00 in
Snow Depth Not available.
4:00 AM 0:14 AM
Waning Gibbous, 84% visible
METAR PABT 231453Z 00000KT 10SM SCT042 SCT050 BKN070 12/09 A2971 RMK AO2 RAB17E48 SLP066 SHRA DSNT N AND VC S-SW P0000 60000 T01170089 51003 $
Pressure 29.73 in
Visibility 10.0 miles
Clouds Scattered Clouds 4200 ft
Scattered Clouds 5000 ft
Mostly Cloudy 7000 ft
Dew Point 48 °F
Humidity 83%
Rainfall 0.00 in
Snow Depth Not available.
4:00 AM 0:14 AM
Waning Gibbous, 84% visible
METAR PABT 231453Z 00000KT 10SM SCT042 SCT050 BKN070 12/09 A2971 RMK AO2 RAB17E48 SLP066 SHRA DSNT N AND VC S-SW P0000 60000 T01170089 51003 $

10-Day Weather Forecast

Almanac

Astronomy

Jul. 23, 2016 Rise Set
Actual Time
Civil Twilight
Nautical Twilight
Astronomical Twilight
Moon
Length of Visible Light
Length of Day
Tomorrow will be .
, % of the Moon is Illuminated

Today's Extremes

State Highs State Lows

Community

WunderPhotos

Upload Photos

1,926,838 photos uploaded!

WunderBlog® & News

Nearby

Air Quality

  Air Quality AQ Index Pollutant
Not available.

Snow Depth

Station Depth Elevation

Earthquake Activity

City Distance Mag. Time & Date
Minimum magnitude displayed is 2.5.

Coastal Water Temperatures

Place Temperature

Stations

Nearby Weather Stations

Station Location Temp. Windchill Dew Point Humidity Wind Precip. Elev Updated Type
                   

Watches & Warnings

There are currently no watches in effect.